Baychester, New York
Current Conditions -  °F | °C
As of 9:51 AM on Saturday 22 Nov 2014 (Local Time) from KLGA Reporting Station
Few Clouds Few Clouds  
Wind Chill: 23°   Ceiling: Unl
Heat Index: 33°   Visibility: 10mi
Dew Point: 10°   Wind: 14mph
Humidity: 38%   Direction: 250°WSW
Pressure: 30.46"   Gusts: 20mph
Location:  40.8683°N, 73.8469°W
Report Text: KLGA 221451Z 25012G17KT 10SM FEW250 01/M12 A3046 RMK AO2 SLP313 T00061122 58012
Loading
Personal Weather Stations






























Interactive Weather Map New forecast layout! Learn more

10-Day Weather Forecast

Advertisements
Track Severe Weather on mobile